sensor_id;sensor_type;location;lat;lon;timestamp;temperature;humidity
42095;DHT22;27753;55.724;37.612;2023-11-21T00:01:15;-6.40;91.40
42095;DHT22;27753;55.724;37.612;2023-11-21T00:03:42;-6.40;91.10
42095;DHT22;27753;55.724;37.612;2023-11-21T00:09:04;-6.40;91.30
42095;DHT22;27753;55.724;37.612;2023-11-21T00:11:56;-6.30;91.20
42095;DHT22;27753;55.724;37.612;2023-11-21T00:14:31;-6.40;91.00
42095;DHT22;27753;55.724;37.612;2023-11-21T00:17:22;-6.40;91.00
42095;DHT22;27753;55.724;37.612;2023-11-21T00:19:52;-6.50;90.80
42095;DHT22;27753;55.724;37.612;2023-11-21T00:22:22;-6.50;91.00
42095;DHT22;27753;55.724;37.612;2023-11-21T00:25:11;-6.60;91.00
42095;DHT22;27753;55.724;37.612;2023-11-21T00:27:38;-6.60;91.10
42095;DHT22;27753;55.724;37.612;2023-11-21T00:30:07;-6.60;91.00
42095;DHT22;27753;55.724;37.612;2023-11-21T00:32:52;-6.60;91.10
42095;DHT22;27753;55.724;37.612;2023-11-21T00:35:21;-6.60;91.10
42095;DHT22;27753;55.724;37.612;2023-11-21T00:37:46;-6.60;91.20
42095;DHT22;27753;55.724;37.612;2023-11-21T00:40:15;-6.60;91.20
42095;DHT22;27753;55.724;37.612;2023-11-21T00:42:42;-6.60;91.10
42095;DHT22;27753;55.724;37.612;2023-11-21T00:45:08;-6.60;91.10
42095;DHT22;27753;55.724;37.612;2023-11-21T00:47:34;-6.70;91.20
42095;DHT22;27753;55.724;37.612;2023-11-21T00:50:00;-6.60;91.20
42095;DHT22;27753;55.724;37.612;2023-11-21T00:52:26;-6.60;91.20
42095;DHT22;27753;55.724;37.612;2023-11-21T00:54:52;-6.50;91.30
42095;DHT22;27753;55.724;37.612;2023-11-21T00:57:19;-6.50;91.40
42095;DHT22;27753;55.724;37.612;2023-11-21T00:59:45;-6.50;91.30
42095;DHT22;27753;55.724;37.612;2023-11-21T01:02:11;-6.50;91.20
42095;DHT22;27753;55.724;37.612;2023-11-21T01:04:36;-6.50;91.10
42095;DHT22;27753;55.724;37.612;2023-11-21T01:07:03;-6.60;90.90
42095;DHT22;27753;55.724;37.612;2023-11-21T01:09:31;-6.60;91.00
42095;DHT22;27753;55.724;37.612;2023-11-21T01:11:57;-6.60;91.10
42095;DHT22;27753;55.724;37.612;2023-11-21T01:14:22;-6.60;91.20
42095;DHT22;27753;55.724;37.612;2023-11-21T01:16:48;-6.60;91.20
42095;DHT22;27753;55.724;37.612;2023-11-21T01:19:14;-6.60;91.20
42095;DHT22;27753;55.724;37.612;2023-11-21T01:21:40;-6.60;91.10
42095;DHT22;27753;55.724;37.612;2023-11-21T01:24:07;-6.60;91.00
42095;DHT22;27753;55.724;37.612;2023-11-21T01:26:33;-6.60;91.00
42095;DHT22;27753;55.724;37.612;2023-11-21T01:29:02;-6.70;91.10
42095;DHT22;27753;55.724;37.612;2023-11-21T01:31:27;-6.60;91.10
42095;DHT22;27753;55.724;37.612;2023-11-21T01:33:55;-6.60;91.20
42095;DHT22;27753;55.724;37.612;2023-11-21T01:36:21;-6.60;91.00
42095;DHT22;27753;55.724;37.612;2023-11-21T01:38:47;-6.70;90.90
42095;DHT22;27753;55.724;37.612;2023-11-21T01:41:16;-6.70;91.00
42095;DHT22;27753;55.724;37.612;2023-11-21T01:43:42;-6.70;91.10
42095;DHT22;27753;55.724;37.612;2023-11-21T01:46:09;-6.70;91.20
42095;DHT22;27753;55.724;37.612;2023-11-21T01:48:35;-6.70;91.20
42095;DHT22;27753;55.724;37.612;2023-11-21T01:51:01;-6.70;91.20
42095;DHT22;27753;55.724;37.612;2023-11-21T01:53:28;-6.60;91.20
42095;DHT22;27753;55.724;37.612;2023-11-21T01:55:55;-6.60;91.10
42095;DHT22;27753;55.724;37.612;2023-11-21T01:58:22;-6.70;90.90
42095;DHT22;27753;55.724;37.612;2023-11-21T02:00:48;-6.70;91.00
42095;DHT22;27753;55.724;37.612;2023-11-21T02:03:16;-6.60;91.20
42095;DHT22;27753;55.724;37.612;2023-11-21T02:05:42;-6.60;91.00
42095;DHT22;27753;55.724;37.612;2023-11-21T02:08:08;-6.60;90.80
42095;DHT22;27753;55.724;37.612;2023-11-21T02:10:35;-6.60;90.70
42095;DHT22;27753;55.724;37.612;2023-11-21T02:13:03;-6.70;90.70
42095;DHT22;27753;55.724;37.612;2023-11-21T02:15:29;-6.70;90.60
42095;DHT22;27753;55.724;37.612;2023-11-21T02:17:55;-6.70;90.50
42095;DHT22;27753;55.724;37.612;2023-11-21T02:20:23;-6.80;90.60
42095;DHT22;27753;55.724;37.612;2023-11-21T02:22:51;-6.80;90.60
42095;DHT22;27753;55.724;37.612;2023-11-21T02:25:27;-6.80;90.60
42095;DHT22;27753;55.724;37.612;2023-11-21T02:27:57;-6.70;90.50
42095;DHT22;27753;55.724;37.612;2023-11-21T02:30:24;-6.80;90.40
42095;DHT22;27753;55.724;37.612;2023-11-21T02:33:01;-6.80;90.20
42095;DHT22;27753;55.724;37.612;2023-11-21T02:35:27;-6.80;90.10
42095;DHT22;27753;55.724;37.612;2023-11-21T02:37:54;-6.80;90.00
42095;DHT22;27753;55.724;37.612;2023-11-21T02:40:20;-6.80;90.00
42095;DHT22;27753;55.724;37.612;2023-11-21T02:42:49;-6.80;89.90
42095;DHT22;27753;55.724;37.612;2023-11-21T02:45:21;-6.80;90.10
42095;DHT22;27753;55.724;37.612;2023-11-21T02:47:47;-6.80;89.70
42095;DHT22;27753;55.724;37.612;2023-11-21T02:50:14;-6.80;88.90
42095;DHT22;27753;55.724;37.612;2023-11-21T02:52:40;-6.90;89.20
42095;DHT22;27753;55.724;37.612;2023-11-21T02:55:06;-6.90;89.40
42095;DHT22;27753;55.724;37.612;2023-11-21T02:57:34;-6.90;89.30
42095;DHT22;27753;55.724;37.612;2023-11-21T03:00:00;-6.80;89.70
42095;DHT22;27753;55.724;37.612;2023-11-21T03:02:26;-6.90;88.60
42095;DHT22;27753;55.724;37.612;2023-11-21T03:04:52;-6.90;88.50
42095;DHT22;27753;55.724;37.612;2023-11-21T03:07:18;-6.90;88.80
42095;DHT22;27753;55.724;37.612;2023-11-21T03:09:47;-6.90;88.70
42095;DHT22;27753;55.724;37.612;2023-11-21T03:12:14;-6.90;88.50
42095;DHT22;27753;55.724;37.612;2023-11-21T03:14:41;-6.90;88.20
42095;DHT22;27753;55.724;37.612;2023-11-21T03:17:07;-6.90;88.10
42095;DHT22;27753;55.724;37.612;2023-11-21T03:19:33;-7.00;88.30
42095;DHT22;27753;55.724;37.612;2023-11-21T03:21:59;-7.00;88.30
42095;DHT22;27753;55.724;37.612;2023-11-21T03:24:25;-7.00;88.40
42095;DHT22;27753;55.724;37.612;2023-11-21T03:26:52;-7.00;88.60
42095;DHT22;27753;55.724;37.612;2023-11-21T03:29:18;-7.00;89.00
42095;DHT22;27753;55.724;37.612;2023-11-21T03:31:44;-7.00;89.30
42095;DHT22;27753;55.724;37.612;2023-11-21T03:34:23;-7.00;89.00
42095;DHT22;27753;55.724;37.612;2023-11-21T03:36:49;-7.00;89.20
42095;DHT22;27753;55.724;37.612;2023-11-21T03:39:15;-7.00;89.50
42095;DHT22;27753;55.724;37.612;2023-11-21T03:41:41;-7.00;89.70
42095;DHT22;27753;55.724;37.612;2023-11-21T03:44:07;-7.00;89.80
42095;DHT22;27753;55.724;37.612;2023-11-21T03:46:33;-7.00;90.10
42095;DHT22;27753;55.724;37.612;2023-11-21T03:48:59;-7.00;90.00
42095;DHT22;27753;55.724;37.612;2023-11-21T03:51:24;-6.90;90.20
42095;DHT22;27753;55.724;37.612;2023-11-21T03:53:50;-6.90;90.10
42095;DHT22;27753;55.724;37.612;2023-11-21T03:56:16;-6.90;90.10
42095;DHT22;27753;55.724;37.612;2023-11-21T03:58:42;-6.90;90.20
42095;DHT22;27753;55.724;37.612;2023-11-21T04:01:08;-6.80;90.20
42095;DHT22;27753;55.724;37.612;2023-11-21T04:03:34;-6.80;90.20
42095;DHT22;27753;55.724;37.612;2023-11-21T04:06:00;-6.80;90.20
42095;DHT22;27753;55.724;37.612;2023-11-21T04:08:26;-6.80;90.20
42095;DHT22;27753;55.724;37.612;2023-11-21T04:10:52;-6.70;90.30
42095;DHT22;27753;55.724;37.612;2023-11-21T04:13:19;-6.70;90.20
42095;DHT22;27753;55.724;37.612;2023-11-21T04:15:45;-6.70;90.20
42095;DHT22;27753;55.724;37.612;2023-11-21T04:18:10;-6.70;90.10
42095;DHT22;27753;55.724;37.612;2023-11-21T04:20:36;-6.70;90.10
42095;DHT22;27753;55.724;37.612;2023-11-21T04:23:02;-6.70;90.10
42095;DHT22;27753;55.724;37.612;2023-11-21T04:25:28;-6.70;90.10
42095;DHT22;27753;55.724;37.612;2023-11-21T04:27:54;-6.70;90.00
42095;DHT22;27753;55.724;37.612;2023-11-21T04:30:20;-6.80;90.10
42095;DHT22;27753;55.724;37.612;2023-11-21T04:32:46;-6.80;90.20
42095;DHT22;27753;55.724;37.612;2023-11-21T04:35:12;-6.80;90.30
42095;DHT22;27753;55.724;37.612;2023-11-21T04:37:38;-6.90;90.30
42095;DHT22;27753;55.724;37.612;2023-11-21T04:40:04;-6.90;90.40
42095;DHT22;27753;55.724;37.612;2023-11-21T04:42:36;-6.90;90.50
42095;DHT22;27753;55.724;37.612;2023-11-21T04:45:06;-6.90;90.50
42095;DHT22;27753;55.724;37.612;2023-11-21T04:47:35;-6.80;90.40
42095;DHT22;27753;55.724;37.612;2023-11-21T04:50:02;-6.90;90.60
42095;DHT22;27753;55.724;37.612;2023-11-21T04:52:28;-6.90;90.50
42095;DHT22;27753;55.724;37.612;2023-11-21T04:54:54;-6.90;90.50
42095;DHT22;27753;55.724;37.612;2023-11-21T04:57:23;-6.90;90.50
42095;DHT22;27753;55.724;37.612;2023-11-21T04:59:49;-6.90;90.60
42095;DHT22;27753;55.724;37.612;2023-11-21T05:02:16;-6.90;90.70
42095;DHT22;27753;55.724;37.612;2023-11-21T05:04:42;-6.90;90.60
42095;DHT22;27753;55.724;37.612;2023-11-21T05:07:10;-6.90;90.70
42095;DHT22;27753;55.724;37.612;2023-11-21T05:09:41;-6.90;90.80
42095;DHT22;27753;55.724;37.612;2023-11-21T05:12:09;-6.80;90.80
42095;DHT22;27753;55.724;37.612;2023-11-21T05:14:36;-6.90;90.60
42095;DHT22;27753;55.724;37.612;2023-11-21T05:17:02;-6.90;90.50
42095;DHT22;27753;55.724;37.612;2023-11-21T05:19:29;-7.00;90.60
42095;DHT22;27753;55.724;37.612;2023-11-21T05:21:55;-6.90;90.70
42095;DHT22;27753;55.724;37.612;2023-11-21T05:24:21;-7.00;90.60
42095;DHT22;27753;55.724;37.612;2023-11-21T05:26:50;-6.90;90.60
42095;DHT22;27753;55.724;37.612;2023-11-21T05:29:15;-7.00;90.60
42095;DHT22;27753;55.724;37.612;2023-11-21T05:31:41;-7.00;90.80
42095;DHT22;27753;55.724;37.612;2023-11-21T05:34:07;-7.00;90.60
42095;DHT22;27753;55.724;37.612;2023-11-21T05:36:33;-7.00;90.70
42095;DHT22;27753;55.724;37.612;2023-11-21T05:38:59;-7.00;90.70
42095;DHT22;27753;55.724;37.612;2023-11-21T05:41:25;-7.00;90.90
42095;DHT22;27753;55.724;37.612;2023-11-21T05:43:51;-7.00;91.00
42095;DHT22;27753;55.724;37.612;2023-11-21T05:46:19;-7.00;91.00
42095;DHT22;27753;55.724;37.612;2023-11-21T05:48:45;-7.00;90.90
42095;DHT22;27753;55.724;37.612;2023-11-21T05:51:11;-7.00;90.90
42095;DHT22;27753;55.724;37.612;2023-11-21T05:53:39;-6.90;91.00
42095;DHT22;27753;55.724;37.612;2023-11-21T05:56:05;-6.90;91.00
42095;DHT22;27753;55.724;37.612;2023-11-21T05:58:31;-6.80;91.00
42095;DHT22;27753;55.724;37.612;2023-11-21T06:00:57;-6.80;90.90
42095;DHT22;27753;55.724;37.612;2023-11-21T06:03:23;-6.80;90.90
42095;DHT22;27753;55.724;37.612;2023-11-21T06:05:49;-6.90;90.90
42095;DHT22;27753;55.724;37.612;2023-11-21T06:08:15;-6.90;91.10
42095;DHT22;27753;55.724;37.612;2023-11-21T06:10:43;-6.90;91.20
42095;DHT22;27753;55.724;37.612;2023-11-21T06:13:09;-7.00;91.40
42095;DHT22;27753;55.724;37.612;2023-11-21T06:15:36;-7.10;91.50
42095;DHT22;27753;55.724;37.612;2023-11-21T06:18:02;-7.10;91.60
42095;DHT22;27753;55.724;37.612;2023-11-21T06:20:28;-7.20;91.80
42095;DHT22;27753;55.724;37.612;2023-11-21T06:22:54;-7.10;92.10
42095;DHT22;27753;55.724;37.612;2023-11-21T06:25:20;-7.10;91.90
42095;DHT22;27753;55.724;37.612;2023-11-21T06:27:47;-7.00;91.90
42095;DHT22;27753;55.724;37.612;2023-11-21T06:30:14;-7.00;91.80
42095;DHT22;27753;55.724;37.612;2023-11-21T06:32:41;-7.00;92.00
42095;DHT22;27753;55.724;37.612;2023-11-21T06:35:07;-6.90;92.10
42095;DHT22;27753;55.724;37.612;2023-11-21T06:37:35;-6.80;91.80
42095;DHT22;27753;55.724;37.612;2023-11-21T06:40:05;-6.80;91.70
42095;DHT22;27753;55.724;37.612;2023-11-21T06:42:33;-6.70;91.70
42095;DHT22;27753;55.724;37.612;2023-11-21T06:44:59;-6.70;91.40
42095;DHT22;27753;55.724;37.612;2023-11-21T06:47:29;-6.70;91.60
42095;DHT22;27753;55.724;37.612;2023-11-21T06:49:56;-6.60;91.60
42095;DHT22;27753;55.724;37.612;2023-11-21T06:52:22;-6.60;91.60
42095;DHT22;27753;55.724;37.612;2023-11-21T06:54:48;-6.70;91.00
42095;DHT22;27753;55.724;37.612;2023-11-21T06:57:15;-6.80;91.20
42095;DHT22;27753;55.724;37.612;2023-11-21T06:59:41;-6.80;91.20
42095;DHT22;27753;55.724;37.612;2023-11-21T07:02:07;-6.80;91.30
42095;DHT22;27753;55.724;37.612;2023-11-21T07:04:33;-6.90;91.10
42095;DHT22;27753;55.724;37.612;2023-11-21T07:07:00;-6.90;90.90
42095;DHT22;27753;55.724;37.612;2023-11-21T07:09:26;-6.90;90.90
42095;DHT22;27753;55.724;37.612;2023-11-21T07:11:52;-6.90;90.80
42095;DHT22;27753;55.724;37.612;2023-11-21T07:14:18;-6.90;90.90
42095;DHT22;27753;55.724;37.612;2023-11-21T07:16:45;-6.80;90.90
42095;DHT22;27753;55.724;37.612;2023-11-21T07:19:12;-6.80;90.50
42095;DHT22;27753;55.724;37.612;2023-11-21T07:21:38;-6.80;90.50
42095;DHT22;27753;55.724;37.612;2023-11-21T07:24:08;-6.80;90.50
42095;DHT22;27753;55.724;37.612;2023-11-21T07:26:34;-6.80;90.70
42095;DHT22;27753;55.724;37.612;2023-11-21T07:29:02;-6.70;90.50
42095;DHT22;27753;55.724;37.612;2023-11-21T07:31:28;-6.70;90.60
42095;DHT22;27753;55.724;37.612;2023-11-21T07:33:55;-6.60;90.70
42095;DHT22;27753;55.724;37.612;2023-11-21T07:36:23;-6.60;90.90
42095;DHT22;27753;55.724;37.612;2023-11-21T07:38:49;-6.60;90.30
42095;DHT22;27753;55.724;37.612;2023-11-21T07:41:16;-6.70;90.30
42095;DHT22;27753;55.724;37.612;2023-11-21T07:43:46;-6.70;90.30
42095;DHT22;27753;55.724;37.612;2023-11-21T07:46:12;-6.70;90.40
42095;DHT22;27753;55.724;37.612;2023-11-21T07:48:39;-6.60;90.70
42095;DHT22;27753;55.724;37.612;2023-11-21T07:51:06;-6.40;90.70
42095;DHT22;27753;55.724;37.612;2023-11-21T07:53:33;-6.30;90.40
42095;DHT22;27753;55.724;37.612;2023-11-21T07:56:08;-6.30;90.40
42095;DHT22;27753;55.724;37.612;2023-11-21T07:58:37;-6.10;90.40
42095;DHT22;27753;55.724;37.612;2023-11-21T08:01:09;-6.00;90.30
42095;DHT22;27753;55.724;37.612;2023-11-21T08:03:36;-5.90;90.00
42095;DHT22;27753;55.724;37.612;2023-11-21T08:06:02;-6.00;89.00
42095;DHT22;27753;55.724;37.612;2023-11-21T08:08:29;-6.00;89.40
42095;DHT22;27753;55.724;37.612;2023-11-21T08:10:55;-6.00;89.80
42095;DHT22;27753;55.724;37.612;2023-11-21T08:13:28;-6.10;88.80
42095;DHT22;27753;55.724;37.612;2023-11-21T08:15:57;-6.30;88.80
42095;DHT22;27753;55.724;37.612;2023-11-21T08:18:28;-6.30;89.70
42095;DHT22;27753;55.724;37.612;2023-11-21T08:20:55;-6.40;90.10
42095;DHT22;27753;55.724;37.612;2023-11-21T08:23:22;-6.40;90.00
42095;DHT22;27753;55.724;37.612;2023-11-21T08:25:54;-6.50;89.60
42095;DHT22;27753;55.724;37.612;2023-11-21T08:28:20;-6.50;89.50
42095;DHT22;27753;55.724;37.612;2023-11-21T08:30:51;-6.50;90.00
42095;DHT22;27753;55.724;37.612;2023-11-21T08:33:18;-6.50;90.20
42095;DHT22;27753;55.724;37.612;2023-11-21T08:35:46;-6.40;90.20
42095;DHT22;27753;55.724;37.612;2023-11-21T08:38:12;-6.30;90.00
42095;DHT22;27753;55.724;37.612;2023-11-21T08:40:39;-6.20;90.10
42095;DHT22;27753;55.724;37.612;2023-11-21T08:43:05;-6.10;89.80
42095;DHT22;27753;55.724;37.612;2023-11-21T08:45:31;-6.10;89.50
42095;DHT22;27753;55.724;37.612;2023-11-21T08:48:02;-6.10;89.90
42095;DHT22;27753;55.724;37.612;2023-11-21T08:50:28;-6.10;90.00
42095;DHT22;27753;55.724;37.612;2023-11-21T08:52:54;-6.10;89.70
42095;DHT22;27753;55.724;37.612;2023-11-21T08:55:21;-6.00;88.90
42095;DHT22;27753;55.724;37.612;2023-11-21T08:57:49;-6.10;89.00
42095;DHT22;27753;55.724;37.612;2023-11-21T09:00:16;-6.20;88.20
42095;DHT22;27753;55.724;37.612;2023-11-21T09:02:43;-6.20;88.50
42095;DHT22;27753;55.724;37.612;2023-11-21T09:05:10;-6.20;88.50
42095;DHT22;27753;55.724;37.612;2023-11-21T09:07:40;-6.20;88.50
42095;DHT22;27753;55.724;37.612;2023-11-21T09:10:07;-6.20;88.80
42095;DHT22;27753;55.724;37.612;2023-11-21T09:12:35;-6.30;89.10
42095;DHT22;27753;55.724;37.612;2023-11-21T09:15:06;-6.30;89.20
42095;DHT22;27753;55.724;37.612;2023-11-21T09:17:34;-6.30;89.40
42095;DHT22;27753;55.724;37.612;2023-11-21T09:20:00;-6.40;89.50
42095;DHT22;27753;55.724;37.612;2023-11-21T09:22:25;-6.30;89.60
42095;DHT22;27753;55.724;37.612;2023-11-21T09:24:52;-6.30;89.60
42095;DHT22;27753;55.724;37.612;2023-11-21T09:27:19;-6.30;89.40
42095;DHT22;27753;55.724;37.612;2023-11-21T09:29:48;-6.30;89.30
42095;DHT22;27753;55.724;37.612;2023-11-21T09:32:14;-6.30;89.70
42095;DHT22;27753;55.724;37.612;2023-11-21T09:34:47;-6.30;90.20
42095;DHT22;27753;55.724;37.612;2023-11-21T09:37:16;-6.20;90.30
42095;DHT22;27753;55.724;37.612;2023-11-21T09:39:42;-6.10;89.60
42095;DHT22;27753;55.724;37.612;2023-11-21T09:42:11;-6.10;89.30
42095;DHT22;27753;55.724;37.612;2023-11-21T09:47:15;-5.90;90.10
42095;DHT22;27753;55.724;37.612;2023-11-21T09:49:48;-5.90;90.00
42095;DHT22;27753;55.724;37.612;2023-11-21T09:52:24;-5.90;90.10
42095;DHT22;27753;55.724;37.612;2023-11-21T09:54:54;-5.90;90.10
42095;DHT22;27753;55.724;37.612;2023-11-21T09:57:23;-5.90;89.50
42095;DHT22;27753;55.724;37.612;2023-11-21T09:59:53;-6.00;89.20
42095;DHT22;27753;55.724;37.612;2023-11-21T10:02:28;-6.10;89.50
42095;DHT22;27753;55.724;37.612;2023-11-21T10:04:56;-6.20;89.30
42095;DHT22;27753;55.724;37.612;2023-11-21T10:07:23;-6.20;89.60
42095;DHT22;27753;55.724;37.612;2023-11-21T10:09:50;-6.20;89.60
42095;DHT22;27753;55.724;37.612;2023-11-21T10:12:20;-6.20;89.60
42095;DHT22;27753;55.724;37.612;2023-11-21T10:14:49;-6.20;90.00
42095;DHT22;27753;55.724;37.612;2023-11-21T10:17:15;-6.10;90.00
42095;DHT22;27753;55.724;37.612;2023-11-21T10:19:48;-6.10;89.90
42095;DHT22;27753;55.724;37.612;2023-11-21T10:22:17;-6.00;90.00
42095;DHT22;27753;55.724;37.612;2023-11-21T10:24:45;-5.90;89.90
42095;DHT22;27753;55.724;37.612;2023-11-21T10:27:11;-5.90;89.60
42095;DHT22;27753;55.724;37.612;2023-11-21T10:29:39;-5.90;89.70
42095;DHT22;27753;55.724;37.612;2023-11-21T10:32:07;-5.80;89.60
42095;DHT22;27753;55.724;37.612;2023-11-21T10:34:41;-5.80;89.10
42095;DHT22;27753;55.724;37.612;2023-11-21T10:37:12;-5.80;89.50
42095;DHT22;27753;55.724;37.612;2023-11-21T10:39:39;-5.80;89.30
42095;DHT22;27753;55.724;37.612;2023-11-21T10:42:08;-5.80;89.50
42095;DHT22;27753;55.724;37.612;2023-11-21T10:44:35;-5.80;89.40
42095;DHT22;27753;55.724;37.612;2023-11-21T10:47:01;-5.70;89.30
42095;DHT22;27753;55.724;37.612;2023-11-21T10:49:28;-5.70;89.20
42095;DHT22;27753;55.724;37.612;2023-11-21T10:51:56;-5.60;88.80
42095;DHT22;27753;55.724;37.612;2023-11-21T10:54:26;-5.70;88.70
42095;DHT22;27753;55.724;37.612;2023-11-21T10:56:59;-5.60;88.70
42095;DHT22;27753;55.724;37.612;2023-11-21T10:59:29;-5.70;88.70
42095;DHT22;27753;55.724;37.612;2023-11-21T11:01:58;-5.70;89.20
42095;DHT22;27753;55.724;37.612;2023-11-21T11:04:27;-5.70;89.50
42095;DHT22;27753;55.724;37.612;2023-11-21T11:06:54;-5.70;89.40
42095;DHT22;27753;55.724;37.612;2023-11-21T11:09:20;-5.60;89.60
42095;DHT22;27753;55.724;37.612;2023-11-21T11:11:46;-5.60;88.50
42095;DHT22;27753;55.724;37.612;2023-11-21T11:14:13;-5.70;88.20
42095;DHT22;27753;55.724;37.612;2023-11-21T11:16:40;-5.70;88.30
42095;DHT22;27753;55.724;37.612;2023-11-21T11:19:07;-5.70;88.20
42095;DHT22;27753;55.724;37.612;2023-11-21T11:21:41;-5.70;88.30
42095;DHT22;27753;55.724;37.612;2023-11-21T11:27:24;-5.70;89.00
42095;DHT22;27753;55.724;37.612;2023-11-21T11:30:17;-5.80;88.30
42095;DHT22;27753;55.724;37.612;2023-11-21T11:38:23;-6.10;89.20
42095;DHT22;27753;55.724;37.612;2023-11-21T11:40:53;-6.20;90.00
42095;DHT22;27753;55.724;37.612;2023-11-21T11:43:26;-6.20;90.20
42095;DHT22;27753;55.724;37.612;2023-11-21T11:45:56;-6.20;90.40
42095;DHT22;27753;55.724;37.612;2023-11-21T11:48:23;-6.20;90.70
42095;DHT22;27753;55.724;37.612;2023-11-21T11:51:14;-6.20;90.90
42095;DHT22;27753;55.724;37.612;2023-11-21T11:53:43;-6.20;91.10
42095;DHT22;27753;55.724;37.612;2023-11-21T11:56:30;-6.20;91.20
42095;DHT22;27753;55.724;37.612;2023-11-21T11:58:59;-6.30;91.40
42095;DHT22;27753;55.724;37.612;2023-11-21T12:01:29;-6.20;91.50
42095;DHT22;27753;55.724;37.612;2023-11-21T12:06:46;-6.20;91.50
42095;DHT22;27753;55.724;37.612;2023-11-21T12:09:24;-6.20;91.60
42095;DHT22;27753;55.724;37.612;2023-11-21T12:11:52;-6.10;91.70
42095;DHT22;27753;55.724;37.612;2023-11-21T12:14:22;-6.00;91.60
42095;DHT22;27753;55.724;37.612;2023-11-21T12:16:49;-6.00;91.50
42095;DHT22;27753;55.724;37.612;2023-11-21T12:19:18;-6.00;91.20
42095;DHT22;27753;55.724;37.612;2023-11-21T12:21:46;-6.10;90.90
42095;DHT22;27753;55.724;37.612;2023-11-21T12:24:14;-6.10;91.10
42095;DHT22;27753;55.724;37.612;2023-11-21T12:26:43;-6.20;91.20
42095;DHT22;27753;55.724;37.612;2023-11-21T12:29:09;-6.20;91.10
42095;DHT22;27753;55.724;37.612;2023-11-21T12:31:38;-6.30;91.20
42095;DHT22;27753;55.724;37.612;2023-11-21T12:34:06;-6.30;91.40
42095;DHT22;27753;55.724;37.612;2023-11-21T12:36:32;-6.30;91.40
42095;DHT22;27753;55.724;37.612;2023-11-21T12:38:59;-6.30;91.50
42095;DHT22;27753;55.724;37.612;2023-11-21T12:41:26;-6.30;91.50
42095;DHT22;27753;55.724;37.612;2023-11-21T12:43:52;-6.40;91.40
42095;DHT22;27753;55.724;37.612;2023-11-21T12:46:18;-6.30;91.50
42095;DHT22;27753;55.724;37.612;2023-11-21T12:48:45;-6.40;91.40
42095;DHT22;27753;55.724;37.612;2023-11-21T12:51:12;-6.40;91.30
42095;DHT22;27753;55.724;37.612;2023-11-21T12:53:42;-6.50;91.20
42095;DHT22;27753;55.724;37.612;2023-11-21T12:56:10;-6.60;91.30
42095;DHT22;27753;55.724;37.612;2023-11-21T12:58:38;-6.60;91.30
42095;DHT22;27753;55.724;37.612;2023-11-21T13:01:08;-6.60;91.30
42095;DHT22;27753;55.724;37.612;2023-11-21T13:03:40;-6.60;91.30
42095;DHT22;27753;55.724;37.612;2023-11-21T13:06:11;-6.70;91.60
42095;DHT22;27753;55.724;37.612;2023-11-21T13:08:38;-6.60;91.60
42095;DHT22;27753;55.724;37.612;2023-11-21T13:11:05;-6.60;91.80
42095;DHT22;27753;55.724;37.612;2023-11-21T13:13:34;-6.50;92.00
42095;DHT22;27753;55.724;37.612;2023-11-21T13:16:02;-6.60;91.90
42095;DHT22;27753;55.724;37.612;2023-11-21T13:18:32;-6.50;92.10
42095;DHT22;27753;55.724;37.612;2023-11-21T13:21:05;-6.50;92.10
42095;DHT22;27753;55.724;37.612;2023-11-21T13:23:43;-6.50;91.80
42095;DHT22;27753;55.724;37.612;2023-11-21T13:26:11;-6.60;91.50
42095;DHT22;27753;55.724;37.612;2023-11-21T13:28:37;-6.60;91.70
42095;DHT22;27753;55.724;37.612;2023-11-21T13:31:04;-6.60;91.90
42095;DHT22;27753;55.724;37.612;2023-11-21T13:33:47;-6.60;92.20
42095;DHT22;27753;55.724;37.612;2023-11-21T13:36:24;-6.60;91.80
42095;DHT22;27753;55.724;37.612;2023-11-21T13:38:51;-6.60;91.70
42095;DHT22;27753;55.724;37.612;2023-11-21T13:41:20;-6.60;91.70
42095;DHT22;27753;55.724;37.612;2023-11-21T13:43:53;-6.70;91.40
42095;DHT22;27753;55.724;37.612;2023-11-21T13:46:29;-6.70;91.40
42095;DHT22;27753;55.724;37.612;2023-11-21T13:48:57;-6.70;91.30
42095;DHT22;27753;55.724;37.612;2023-11-21T13:51:23;-6.70;91.10
42095;DHT22;27753;55.724;37.612;2023-11-21T13:53:59;-6.70;91.00
42095;DHT22;27753;55.724;37.612;2023-11-21T13:56:26;-6.70;90.80
42095;DHT22;27753;55.724;37.612;2023-11-21T13:58:55;-6.70;90.70
42095;DHT22;27753;55.724;37.612;2023-11-21T14:01:26;-6.70;90.70
42095;DHT22;27753;55.724;37.612;2023-11-21T14:03:55;-6.60;91.00
42095;DHT22;27753;55.724;37.612;2023-11-21T14:06:34;-6.60;91.00
42095;DHT22;27753;55.724;37.612;2023-11-21T14:09:08;-6.60;90.80
42095;DHT22;27753;55.724;37.612;2023-11-21T14:11:34;-6.60;90.50
42095;DHT22;27753;55.724;37.612;2023-11-21T14:14:03;-6.60;90.40
42095;DHT22;27753;55.724;37.612;2023-11-21T14:16:31;-6.70;90.50
42095;DHT22;27753;55.724;37.612;2023-11-21T14:18:59;-6.70;90.50
42095;DHT22;27753;55.724;37.612;2023-11-21T14:21:35;-6.80;90.60
42095;DHT22;27753;55.724;37.612;2023-11-21T14:24:01;-6.80;90.70
42095;DHT22;27753;55.724;37.612;2023-11-21T14:26:27;-6.80;90.80
42095;DHT22;27753;55.724;37.612;2023-11-21T14:28:54;-6.80;90.90
42095;DHT22;27753;55.724;37.612;2023-11-21T14:31:20;-6.80;91.10
42095;DHT22;27753;55.724;37.612;2023-11-21T14:33:46;-6.80;91.20
42095;DHT22;27753;55.724;37.612;2023-11-21T14:36:12;-6.80;91.30
42095;DHT22;27753;55.724;37.612;2023-11-21T14:38:38;-6.80;91.30
42095;DHT22;27753;55.724;37.612;2023-11-21T14:41:05;-6.80;91.30
42095;DHT22;27753;55.724;37.612;2023-11-21T14:43:36;-6.80;91.20
42095;DHT22;27753;55.724;37.612;2023-11-21T14:46:04;-6.90;91.30
42095;DHT22;27753;55.724;37.612;2023-11-21T14:48:34;-6.90;91.40
42095;DHT22;27753;55.724;37.612;2023-11-21T14:51:12;-6.90;91.50
42095;DHT22;27753;55.724;37.612;2023-11-21T14:54:00;-6.90;91.60
42095;DHT22;27753;55.724;37.612;2023-11-21T14:56:32;-6.90;91.70
42095;DHT22;27753;55.724;37.612;2023-11-21T14:59:03;-6.90;91.80
42095;DHT22;27753;55.724;37.612;2023-11-21T15:01:38;-7.00;91.80
42095;DHT22;27753;55.724;37.612;2023-11-21T15:04:22;-7.00;92.00
42095;DHT22;27753;55.724;37.612;2023-11-21T15:07:08;-7.10;92.10
42095;DHT22;27753;55.724;37.612;2023-11-21T15:09:37;-7.10;92.20
42095;DHT22;27753;55.724;37.612;2023-11-21T15:12:11;-7.10;92.40
42095;DHT22;27753;55.724;37.612;2023-11-21T15:14:48;-7.20;92.50
42095;DHT22;27753;55.724;37.612;2023-11-21T15:17:18;-7.20;92.50
42095;DHT22;27753;55.724;37.612;2023-11-21T15:19:52;-7.20;92.50
42095;DHT22;27753;55.724;37.612;2023-11-21T15:22:19;-7.20;92.60
42095;DHT22;27753;55.724;37.612;2023-11-21T15:24:45;-7.20;92.60
42095;DHT22;27753;55.724;37.612;2023-11-21T15:27:18;-7.20;92.60
42095;DHT22;27753;55.724;37.612;2023-11-21T15:29:45;-7.20;92.50
42095;DHT22;27753;55.724;37.612;2023-11-21T15:32:12;-7.20;92.30
42095;DHT22;27753;55.724;37.612;2023-11-21T15:34:38;-7.30;92.40
42095;DHT22;27753;55.724;37.612;2023-11-21T15:37:05;-7.30;92.40
42095;DHT22;27753;55.724;37.612;2023-11-21T15:39:33;-7.30;92.40